createdAt,value
2018-05-03T00:02:04.079Z,4.70
2018-05-03T00:07:07.186Z,4.60
2018-05-03T00:12:10.362Z,4.60
2018-05-03T00:17:13.491Z,4.70
2018-05-03T00:22:16.669Z,4.18
2018-05-03T00:27:19.828Z,4.57
2018-05-03T00:32:23.015Z,4.60
2018-05-03T00:37:26.175Z,5.10
2018-05-03T00:42:29.315Z,4.00
2018-05-03T00:47:32.463Z,4.60
2018-05-03T00:52:35.552Z,4.97
2018-05-03T00:57:38.650Z,4.45
2018-05-03T01:02:41.746Z,4.13
2018-05-03T01:07:45.962Z,4.53
2018-05-03T01:12:49.046Z,4.63
2018-05-03T01:17:52.145Z,4.33
2018-05-03T01:22:55.988Z,4.50
2018-05-03T01:27:59.078Z,4.80
2018-05-03T01:33:02.158Z,4.10
2018-05-03T01:38:06.002Z,4.60
2018-05-03T01:43:09.842Z,5.37
2018-05-03T01:48:14.281Z,4.50
2018-05-03T01:53:17.376Z,4.53
2018-05-03T01:58:20.454Z,4.80
2018-05-03T02:03:23.534Z,4.03
2018-05-03T02:08:27.382Z,4.73
2018-05-03T02:13:30.482Z,5.03
2018-05-03T02:18:33.563Z,4.70
2018-05-03T02:23:36.657Z,5.10
2018-05-03T02:28:41.094Z,4.70
2018-05-03T02:33:44.165Z,4.60
2018-05-03T02:38:48.597Z,5.13
2018-05-03T02:43:51.684Z,4.67
2018-05-03T02:48:54.768Z,4.85
2018-05-03T02:53:58.626Z,4.97
2018-05-03T02:59:19.466Z,4.93
2018-05-03T03:04:46.458Z,4.60
2018-05-03T03:16:13.715Z,4.90
2018-05-03T03:21:40.273Z,4.37
2018-05-03T03:32:55.668Z,5.03
2018-05-03T03:38:22.989Z,4.80
2018-05-03T03:43:43.890Z,5.27
2018-05-03T03:48:46.987Z,5.07
2018-05-03T03:53:50.070Z,4.67
2018-05-03T03:58:53.543Z,4.93
2018-05-03T04:03:56.634Z,4.90
2018-05-03T04:09:00.863Z,5.13
2018-05-03T04:14:03.959Z,4.77
2018-05-03T04:19:24.873Z,5.10
2018-05-03T04:24:46.547Z,5.47
2018-05-03T04:29:51.138Z,5.80
2018-05-03T04:34:54.235Z,5.90
2018-05-03T04:39:57.323Z,6.30
2018-05-03T04:45:01.302Z,6.63
2018-05-03T04:50:04.378Z,6.10
2018-05-03T04:55:08.238Z,6.43
2018-05-03T05:00:12.087Z,7.97
2018-05-03T05:05:15.175Z,6.67
2018-05-03T05:10:19.494Z,7.97
2018-05-03T05:15:23.348Z,8.80
2018-05-03T05:20:26.458Z,10.20
2018-05-03T05:25:30.318Z,10.27
2018-05-03T05:30:33.409Z,11.53
2018-05-03T05:35:37.651Z,11.00
2018-05-03T05:40:41.507Z,10.10
2018-05-03T05:45:44.594Z,8.73
2018-05-03T05:50:47.687Z,8.57
2018-05-03T05:55:50.755Z,8.00
2018-05-03T06:00:54.606Z,6.90
2018-05-03T06:05:59.042Z,6.27
2018-05-03T06:11:03.482Z,6.23
2018-05-03T06:16:08.072Z,6.30
2018-05-03T06:21:11.154Z,6.33
2018-05-03T06:26:15.593Z,6.40
2018-05-03T06:31:18.680Z,5.67
2018-05-03T06:36:23.270Z,5.70
2018-05-03T06:41:27.490Z,5.50
2018-05-03T06:46:30.570Z,5.53
2018-05-03T06:51:34.866Z,4.97
2018-05-03T06:56:37.895Z,5.07
2018-05-03T07:01:40.995Z,4.47
2018-05-03T07:06:45.457Z,4.50
2018-05-03T07:11:49.341Z,4.43
2018-05-03T07:16:53.583Z,4.10
2018-05-03T07:21:59.131Z,3.90
2018-05-03T07:27:02.215Z,4.07
2018-05-03T07:32:06.811Z,4.20
2018-05-03T07:37:11.238Z,4.60
2018-05-03T07:42:15.677Z,3.80
2018-05-03T07:47:19.155Z,3.73
2018-05-03T07:52:22.638Z,3.50
2018-05-03T07:57:25.738Z,3.80
2018-05-03T08:02:28.826Z,3.10
2018-05-03T08:07:32.682Z,3.13
2018-05-03T08:12:35.770Z,2.90
2018-05-03T08:17:38.854Z,3.20
2018-05-03T08:22:42.703Z,2.70
2018-05-03T08:27:45.790Z,3.50
2018-05-03T08:32:50.389Z,3.03
2018-05-03T08:37:53.871Z,2.80
2018-05-03T08:42:56.959Z,2.77
2018-05-03T08:48:00.816Z,2.70
2018-05-03T08:53:03.922Z,2.90
2018-05-03T08:58:07.001Z,2.57
2018-05-03T09:03:10.141Z,2.77
2018-05-03T09:08:14.521Z,2.80
2018-05-03T09:13:18.950Z,3.10
2018-05-03T09:18:23.178Z,3.03
2018-05-03T09:23:26.335Z,2.83
2018-05-03T09:28:29.356Z,2.63
2018-05-03T09:33:32.442Z,2.60
2018-05-03T09:38:36.888Z,2.60
2018-05-03T09:43:41.463Z,2.90
2018-05-03T09:48:44.550Z,2.67
2018-05-03T09:53:48.027Z,2.60
2018-05-03T09:58:51.118Z,2.83
2018-05-03T10:03:55.557Z,2.50
2018-05-03T10:08:59.997Z,2.30
2018-05-03T10:14:03.482Z,2.50
2018-05-03T10:19:07.914Z,2.87
2018-05-03T10:24:12.494Z,3.30
2018-05-03T10:29:15.582Z,3.70
2018-05-03T10:34:18.668Z,3.37
2018-05-03T10:39:21.750Z,3.13
2018-05-03T10:44:26.189Z,2.93
2018-05-03T10:49:30.346Z,3.10
2018-05-03T10:54:34.942Z,2.80
2018-05-03T10:59:38.027Z,3.15
2018-05-03T11:04:41.120Z,2.90
2018-05-03T11:09:44.200Z,2.77
2018-05-03T11:14:48.439Z,3.43
2018-05-03T11:19:52.386Z,3.10
2018-05-03T11:24:55.467Z,2.90
2018-05-03T11:29:58.938Z,2.80
2018-05-03T11:35:03.527Z,3.77
2018-05-03T11:40:08.118Z,3.83
2018-05-03T11:45:12.335Z,3.30
2018-05-03T11:50:15.419Z,3.43
2018-05-03T11:55:18.503Z,3.30
2018-05-03T12:00:22.942Z,2.83
2018-05-03T12:05:26.451Z,2.78
2018-05-03T12:10:29.517Z,3.00
2018-05-03T12:15:32.600Z,2.83
2018-05-03T12:20:35.690Z,2.63
2018-05-03T12:25:39.526Z,2.40
2018-05-03T12:30:42.605Z,2.80
2018-05-03T12:35:47.253Z,2.50
2018-05-03T12:40:50.726Z,2.97
2018-05-03T12:45:54.574Z,2.87
2018-05-03T12:50:58.790Z,2.60
2018-05-03T12:56:02.647Z,2.80
2018-05-03T13:01:06.858Z,2.10
2018-05-03T13:06:10.710Z,2.77
2018-05-03T13:11:14.927Z,2.27
2018-05-03T13:16:18.012Z,2.80
2018-05-03T13:21:21.100Z,2.40
2018-05-03T13:26:25.684Z,3.53
2018-05-03T13:31:28.762Z,2.50
2018-05-03T13:36:31.851Z,2.83
2018-05-03T13:41:35.702Z,2.70
2018-05-03T13:46:38.786Z,2.77
2018-05-03T13:51:42.267Z,2.70
2018-05-03T13:56:45.746Z,2.93
2018-05-03T14:01:50.179Z,2.77
2018-05-03T14:06:54.950Z,3.10
2018-05-03T14:12:00.606Z,2.50
2018-05-03T14:17:03.691Z,3.07
2018-05-03T14:22:08.122Z,2.80
2018-05-03T14:27:12.600Z,2.50
2018-05-03T14:32:16.975Z,2.70
2018-05-03T14:37:20.051Z,2.90
2018-05-03T14:42:24.472Z,3.20
2018-05-03T14:47:28.897Z,2.60
2018-05-03T14:52:32.379Z,3.00
2018-05-03T14:57:36.229Z,2.97
2018-05-03T15:02:39.302Z,2.70
2018-05-03T15:07:43.730Z,3.00
2018-05-03T15:12:48.228Z,2.90
2018-05-03T15:17:52.574Z,2.50
2018-05-03T15:22:56.421Z,2.93
2018-05-03T15:28:00.267Z,2.70
2018-05-03T15:33:04.118Z,2.60
2018-05-03T15:38:08.343Z,2.35
2018-05-03T15:43:11.421Z,2.63
2018-05-03T15:48:15.277Z,2.60
2018-05-03T15:53:19.123Z,2.80
2018-05-03T15:58:22.205Z,2.37
2018-05-03T16:03:26.644Z,2.53
2018-05-03T16:08:30.490Z,2.90
2018-05-03T16:13:34.337Z,2.90
2018-05-03T16:18:37.415Z,2.50
2018-05-03T16:23:40.502Z,2.40
2018-05-03T16:28:43.584Z,2.63
2018-05-03T16:33:47.436Z,2.47
2018-05-03T16:38:50.526Z,2.70
2018-05-03T16:43:53.611Z,2.50
2018-05-03T16:48:56.699Z,2.77
2018-05-03T16:54:01.202Z,2.53
2018-05-03T16:59:04.286Z,2.67
2018-05-03T17:04:08.136Z,2.63
2018-05-03T17:09:11.219Z,2.90
2018-05-03T17:14:15.121Z,2.27
2018-05-03T17:19:19.278Z,2.30
2018-05-03T17:24:22.360Z,2.37
2018-05-03T17:29:25.829Z,2.50
2018-05-03T17:34:28.912Z,2.60
2018-05-03T17:39:31.999Z,2.70
2018-05-03T17:44:35.839Z,2.40
2018-05-03T17:49:40.429Z,2.40
2018-05-03T17:54:43.910Z,2.40
2018-05-03T17:59:47.763Z,2.10
2018-05-03T18:04:50.870Z,2.50
2018-05-03T18:09:53.955Z,2.10
2018-05-03T18:14:57.434Z,2.20
2018-05-03T18:20:00.906Z,2.23
2018-05-03T18:25:05.820Z,2.43
2018-05-03T18:30:09.666Z,2.40
2018-05-03T18:35:12.755Z,2.30
2018-05-03T18:40:17.338Z,2.30
2018-05-03T18:45:20.428Z,2.50
2018-05-03T18:50:24.858Z,2.17
2018-05-03T18:55:28.326Z,2.10
2018-05-03T19:00:31.401Z,2.35
2018-05-03T19:05:34.473Z,2.40
2018-05-03T19:10:38.914Z,2.50
2018-05-03T19:15:43.066Z,2.60
2018-05-03T19:20:46.996Z,2.30
2018-05-03T19:25:50.023Z,2.70
2018-05-03T19:30:54.030Z,2.30
2018-05-03T19:35:57.102Z,2.40
2018-05-03T19:41:00.595Z,2.30
2018-05-03T19:46:03.682Z,2.40
2018-05-03T19:51:06.767Z,2.30
2018-05-03T19:56:10.419Z,2.50
2018-05-03T20:01:14.304Z,2.70
2018-05-03T20:06:18.197Z,2.60
2018-05-03T20:11:22.861Z,3.13
2018-05-03T20:16:27.457Z,2.60
2018-05-03T20:21:30.547Z,2.53
2018-05-03T20:26:34.395Z,2.77
2018-05-03T20:31:38.634Z,2.90
2018-05-03T20:36:41.747Z,2.77
2018-05-03T20:41:44.908Z,3.00
2018-05-03T20:46:49.606Z,2.60
2018-05-03T20:51:58.689Z,3.23
2018-05-03T20:57:01.791Z,2.60
2018-05-03T21:02:06.257Z,2.77
2018-05-03T21:07:10.272Z,2.63
2018-05-03T21:12:13.873Z,2.90
2018-05-03T21:17:16.978Z,2.80
2018-05-03T21:22:20.842Z,2.80
2018-05-03T21:27:24.758Z,2.70
2018-05-03T21:32:29.956Z,2.90
2018-05-03T21:37:33.192Z,2.70
2018-05-03T21:42:37.116Z,2.60
2018-05-03T21:47:42.138Z,2.80
2018-05-03T21:52:45.423Z,2.87
2018-05-03T21:57:49.943Z,2.80
2018-05-03T22:02:53.195Z,2.70
2018-05-03T22:07:58.272Z,2.93
2018-05-03T22:13:02.997Z,2.93
2018-05-03T22:18:07.230Z,3.20
2018-05-03T22:23:11.130Z,2.97
2018-05-03T22:28:14.975Z,2.90
2018-05-03T22:33:19.187Z,3.50
2018-05-03T22:38:22.261Z,3.10
2018-05-03T22:43:26.111Z,3.67
2018-05-03T22:48:29.195Z,3.40
2018-05-03T22:53:32.295Z,3.17
2018-05-03T22:58:35.354Z,3.47
2018-05-03T23:03:39.922Z,3.40
2018-05-03T23:08:42.987Z,3.40
2018-05-03T23:13:47.191Z,3.53
2018-05-03T23:18:51.200Z,3.20
2018-05-03T23:23:54.182Z,3.40
2018-05-03T23:28:57.537Z,4.07
2018-05-03T23:34:00.984Z,3.60
2018-05-03T23:39:04.167Z,3.30
2018-05-03T23:44:09.943Z,3.40
2018-05-03T23:49:13.845Z,3.87
2018-05-03T23:54:16.982Z,3.20
2018-05-03T23:59:20.450Z,3.53
